createdAt,value
2017-12-26T00:02:18.470Z,6.99
2017-12-26T00:04:44.263Z,6.98
2017-12-26T00:07:10.039Z,6.97
2017-12-26T00:09:35.822Z,6.89
2017-12-26T00:12:01.611Z,6.86
2017-12-26T00:14:27.731Z,6.87
2017-12-26T00:16:53.539Z,6.84
2017-12-26T00:19:19.339Z,6.88
2017-12-26T00:21:45.390Z,6.81
2017-12-26T00:24:11.191Z,6.79
2017-12-26T00:26:36.974Z,6.81
2017-12-26T00:29:02.779Z,6.76
2017-12-26T00:31:28.583Z,6.79
2017-12-26T00:33:54.363Z,6.75
2017-12-26T00:36:20.166Z,6.77
2017-12-26T00:38:45.953Z,6.77
2017-12-26T00:41:11.780Z,6.76
2017-12-26T00:43:37.568Z,6.74
2017-12-26T00:46:03.362Z,6.75
2017-12-26T00:48:29.199Z,6.74
2017-12-26T00:50:54.975Z,6.77
2017-12-26T00:53:20.772Z,6.74
2017-12-26T00:55:46.576Z,6.80
2017-12-26T00:58:12.364Z,6.71
2017-12-26T01:00:38.164Z,6.66
2017-12-26T01:03:04.002Z,6.70
2017-12-26T01:05:29.797Z,6.65
2017-12-26T01:07:55.602Z,6.58
2017-12-26T01:10:21.407Z,6.57
2017-12-26T01:12:47.204Z,6.53
2017-12-26T01:17:45.710Z,6.51
2017-12-26T01:20:11.502Z,6.51
2017-12-26T01:22:37.504Z,6.48
2017-12-26T01:25:03.315Z,6.53
2017-12-26T01:27:29.099Z,6.57
2017-12-26T01:29:54.923Z,6.57
2017-12-26T01:32:20.711Z,6.51
2017-12-26T01:34:46.509Z,6.53
2017-12-26T01:37:12.319Z,6.56
2017-12-26T01:39:38.114Z,6.55
2017-12-26T01:42:03.943Z,6.52
2017-12-26T01:44:29.954Z,6.57
2017-12-26T01:46:55.799Z,6.60
2017-12-26T01:49:21.616Z,6.60
2017-12-26T01:51:47.398Z,6.62
2017-12-26T01:54:13.205Z,6.57
2017-12-26T01:56:39.009Z,6.66
2017-12-26T01:59:04.782Z,6.62
2017-12-26T02:01:31.414Z,6.61
2017-12-26T02:03:57.220Z,6.59
2017-12-26T02:06:23.023Z,6.61
2017-12-26T02:08:48.827Z,6.58
2017-12-26T02:11:14.644Z,6.55
2017-12-26T02:13:40.423Z,6.56
2017-12-26T02:16:06.231Z,6.60
2017-12-26T02:18:32.031Z,6.55
2017-12-26T02:20:57.818Z,6.52
2017-12-26T02:23:23.598Z,6.49
2017-12-26T02:25:49.380Z,6.48
2017-12-26T02:28:15.166Z,6.50
2017-12-26T02:30:40.939Z,6.47
2017-12-26T02:33:06.706Z,6.41
2017-12-26T02:35:32.523Z,6.43
2017-12-26T02:37:58.313Z,6.44
2017-12-26T02:40:24.086Z,6.42
2017-12-26T02:42:49.891Z,6.43
2017-12-26T02:45:15.695Z,6.42
2017-12-26T02:47:41.475Z,6.36
2017-12-26T02:50:07.304Z,6.35
2017-12-26T02:52:33.106Z,6.32
2017-12-26T02:54:58.888Z,6.35
2017-12-26T02:57:24.702Z,6.31
2017-12-26T02:59:50.487Z,6.33
2017-12-26T03:02:16.268Z,6.34
2017-12-26T03:04:42.074Z,6.29
2017-12-26T03:07:07.887Z,6.26
2017-12-26T03:09:33.712Z,6.24
2017-12-26T03:11:59.486Z,6.23
2017-12-26T03:14:25.255Z,6.25
2017-12-26T03:16:51.046Z,6.25
2017-12-26T03:19:16.826Z,6.19
2017-12-26T03:21:42.625Z,6.18
2017-12-26T03:24:08.443Z,6.19
2017-12-26T03:26:34.227Z,6.17
2017-12-26T03:29:00.015Z,6.26
2017-12-26T03:31:25.811Z,6.14
2017-12-26T03:33:51.595Z,6.17
2017-12-26T03:36:17.382Z,6.15
2017-12-26T03:38:43.165Z,6.17
2017-12-26T03:41:08.959Z,6.17
2017-12-26T03:43:34.742Z,6.18
2017-12-26T03:46:00.520Z,6.18
2017-12-26T03:48:26.362Z,6.22
2017-12-26T03:50:52.110Z,6.20
2017-12-26T03:53:17.890Z,6.25
2017-12-26T03:55:43.686Z,6.28
2017-12-26T03:58:09.469Z,6.17
2017-12-26T04:00:35.252Z,6.17
2017-12-26T04:03:01.051Z,6.19
2017-12-26T04:05:26.831Z,6.19
2017-12-26T04:07:52.618Z,6.19
2017-12-26T04:10:18.420Z,6.13
2017-12-26T04:12:44.207Z,6.13
2017-12-26T04:15:09.990Z,6.12
2017-12-26T04:17:36.127Z,6.08
2017-12-26T04:20:01.929Z,6.03
2017-12-26T04:22:27.711Z,6.03
2017-12-26T04:24:53.494Z,6.04
2017-12-26T04:27:19.275Z,6.01
2017-12-26T04:29:45.104Z,6.00
2017-12-26T04:32:10.897Z,5.95
2017-12-26T04:34:36.675Z,5.93
2017-12-26T04:37:02.750Z,5.81
2017-12-26T04:39:28.563Z,5.80
2017-12-26T04:41:54.339Z,5.75
2017-12-26T04:44:20.156Z,5.73
2017-12-26T04:46:45.950Z,5.67
2017-12-26T04:49:11.735Z,5.61
2017-12-26T04:51:37.522Z,5.55
2017-12-26T04:54:03.297Z,5.58
2017-12-26T04:56:29.088Z,5.55
2017-12-26T04:58:54.906Z,5.48
2017-12-26T05:01:21.559Z,5.47
2017-12-26T05:03:47.384Z,5.48
2017-12-26T05:06:13.385Z,5.47
2017-12-26T05:08:39.174Z,5.42
2017-12-26T05:11:04.989Z,5.40
2017-12-26T05:13:30.766Z,5.43
2017-12-26T05:15:56.554Z,5.43
2017-12-26T05:18:22.355Z,5.36
2017-12-26T05:20:48.161Z,5.30
2017-12-26T05:23:13.963Z,5.33
2017-12-26T05:25:39.751Z,5.38
2017-12-26T05:28:05.970Z,5.42
2017-12-26T05:30:31.766Z,5.40
2017-12-26T05:32:57.539Z,5.32
2017-12-26T05:35:23.371Z,5.38
2017-12-26T05:37:49.188Z,5.45
2017-12-26T05:40:14.968Z,5.40
2017-12-26T05:42:40.791Z,5.37
2017-12-26T05:45:06.578Z,5.37
2017-12-26T05:47:32.371Z,5.34
2017-12-26T05:49:58.972Z,5.30
2017-12-26T05:52:24.750Z,5.30
2017-12-26T05:54:50.539Z,5.30
2017-12-26T05:57:16.324Z,5.25
2017-12-26T05:59:42.098Z,5.23
2017-12-26T06:02:07.890Z,5.20
2017-12-26T06:04:33.665Z,5.23
2017-12-26T06:06:59.486Z,5.29
2017-12-26T06:09:25.450Z,5.16
2017-12-26T06:11:51.233Z,5.15
2017-12-26T06:14:17.014Z,5.12
2017-12-26T06:16:43.043Z,5.10
2017-12-26T06:19:08.826Z,5.06
2017-12-26T06:21:34.609Z,5.07
2017-12-26T06:24:00.411Z,4.96
2017-12-26T06:26:26.178Z,4.99
2017-12-26T06:28:51.950Z,4.98
2017-12-26T06:31:17.774Z,4.96
2017-12-26T06:33:43.554Z,4.95
2017-12-26T06:36:09.326Z,4.91
2017-12-26T06:38:35.135Z,4.98
2017-12-26T06:41:00.916Z,4.98
2017-12-26T06:43:26.706Z,4.97
2017-12-26T06:45:52.758Z,5.01
2017-12-26T06:48:18.551Z,4.96
2017-12-26T06:50:44.341Z,4.98
2017-12-26T06:53:10.158Z,5.08
2017-12-26T06:55:35.946Z,5.01
2017-12-26T06:58:01.726Z,4.89
2017-12-26T07:00:27.522Z,4.93
2017-12-26T07:02:53.301Z,4.97
2017-12-26T07:05:19.125Z,5.04
2017-12-26T07:07:44.907Z,5.04
2017-12-26T07:10:10.693Z,5.16
2017-12-26T07:12:36.515Z,5.39
2017-12-26T07:15:02.332Z,5.50
2017-12-26T07:17:28.106Z,5.56
2017-12-26T07:19:54.132Z,5.60
2017-12-26T07:22:21.938Z,5.64
2017-12-26T07:24:47.723Z,5.60
2017-12-26T07:27:13.835Z,5.64
2017-12-26T07:29:39.647Z,5.64
2017-12-26T07:32:05.423Z,5.70
2017-12-26T07:34:31.206Z,5.77
2017-12-26T07:36:56.987Z,5.86
2017-12-26T07:39:23.633Z,5.97
2017-12-26T07:41:49.428Z,6.05
2017-12-26T07:44:15.212Z,6.02
2017-12-26T07:46:41.004Z,6.15
2017-12-26T07:49:06.780Z,6.14
2017-12-26T07:51:32.822Z,6.21
2017-12-26T07:53:58.618Z,6.32
2017-12-26T07:56:24.426Z,6.45
2017-12-26T07:58:50.219Z,6.54
2017-12-26T08:01:16.019Z,6.52
2017-12-26T08:03:41.789Z,6.70
2017-12-26T08:06:07.595Z,6.68
2017-12-26T08:08:33.406Z,6.71
2017-12-26T08:10:59.211Z,6.74
2017-12-26T08:13:24.997Z,6.85
2017-12-26T08:15:50.779Z,6.94
2017-12-26T08:18:16.612Z,7.06
2017-12-26T08:20:42.406Z,7.06
2017-12-26T08:23:08.174Z,7.08
2017-12-26T08:25:33.987Z,7.20
2017-12-26T08:27:59.754Z,7.18
2017-12-26T08:30:25.530Z,7.19
2017-12-26T08:32:51.538Z,7.21
2017-12-26T08:35:17.320Z,7.22
2017-12-26T08:37:43.096Z,7.26
2017-12-26T08:40:08.915Z,7.24
2017-12-26T08:42:34.707Z,7.23
2017-12-26T08:45:00.494Z,7.24
2017-12-26T08:47:26.311Z,7.26
2017-12-26T08:49:52.104Z,7.28
2017-12-26T08:52:17.906Z,7.29
2017-12-26T08:54:43.724Z,7.31
2017-12-26T08:57:09.509Z,7.29
2017-12-26T08:59:35.450Z,7.25
2017-12-26T09:02:01.263Z,7.31
2017-12-26T09:04:27.278Z,7.31
2017-12-26T09:06:53.084Z,7.34
2017-12-26T09:09:18.872Z,7.35
2017-12-26T09:11:44.676Z,7.35
2017-12-26T09:14:10.468Z,7.35
2017-12-26T09:16:36.250Z,7.32
2017-12-26T09:19:02.040Z,7.38
2017-12-26T09:21:27.822Z,7.40
2017-12-26T09:23:53.623Z,7.40
2017-12-26T09:26:19.415Z,7.45
2017-12-26T09:28:45.374Z,7.48
2017-12-26T09:31:11.153Z,7.51
2017-12-26T09:33:36.951Z,7.46
2017-12-26T09:36:02.782Z,7.52
2017-12-26T09:38:28.566Z,7.48
2017-12-26T09:40:54.360Z,7.48
2017-12-26T09:43:20.162Z,7.51
2017-12-26T09:45:48.036Z,7.60
2017-12-26T09:48:13.834Z,7.48
2017-12-26T09:50:39.642Z,7.50
2017-12-26T09:53:05.425Z,7.58
2017-12-26T09:55:31.194Z,7.59
2017-12-26T09:57:57.215Z,7.69
2017-12-26T10:00:23.338Z,7.67
2017-12-26T10:02:49.157Z,7.68
2017-12-26T10:05:15.182Z,7.52
2017-12-26T10:07:40.969Z,7.19
2017-12-26T10:10:06.755Z,6.90
2017-12-26T10:12:32.574Z,6.74
2017-12-26T10:14:58.379Z,6.63
2017-12-26T10:17:25.207Z,6.51
2017-12-26T10:19:51.088Z,6.45
2017-12-26T10:22:17.101Z,6.38
2017-12-26T10:24:49.751Z,6.30
2017-12-26T10:27:15.956Z,6.19
2017-12-26T10:29:41.738Z,6.13
2017-12-26T10:32:07.531Z,6.09
2017-12-26T10:34:33.528Z,6.05
2017-12-26T10:36:59.330Z,5.93
2017-12-26T10:39:25.130Z,5.89
2017-12-26T10:41:50.933Z,5.83
2017-12-26T10:44:16.785Z,5.76
2017-12-26T10:46:42.567Z,5.83
2017-12-26T10:49:08.690Z,5.78
2017-12-26T10:51:34.735Z,5.87
2017-12-26T10:54:01.009Z,5.86
2017-12-26T10:56:27.115Z,5.95
2017-12-26T10:58:53.340Z,6.00
2017-12-26T11:01:19.562Z,6.04
2017-12-26T11:03:45.411Z,6.06
2017-12-26T11:06:12.944Z,6.07
2017-12-26T11:08:38.737Z,6.11
2017-12-26T11:11:04.806Z,6.16
2017-12-26T11:13:30.616Z,6.25
2017-12-26T11:15:56.459Z,6.23
2017-12-26T11:18:22.748Z,6.27
2017-12-26T11:20:48.708Z,6.26
2017-12-26T11:23:14.964Z,6.27
2017-12-26T11:25:41.129Z,6.33
2017-12-26T11:28:06.956Z,6.38
2017-12-26T11:30:32.808Z,6.48
2017-12-26T11:32:58.663Z,6.55
2017-12-26T11:35:26.056Z,6.48
2017-12-26T11:37:51.927Z,6.51
2017-12-26T11:40:17.814Z,6.52
2017-12-26T11:42:43.612Z,6.52
2017-12-26T11:45:09.784Z,6.60
2017-12-26T11:47:35.586Z,6.59
2017-12-26T11:50:01.389Z,6.56
2017-12-26T11:52:28.097Z,6.52
2017-12-26T11:54:53.915Z,6.51
2017-12-26T11:57:20.786Z,6.58
2017-12-26T11:59:48.019Z,6.62
2017-12-26T12:02:13.857Z,6.63
2017-12-26T12:04:39.666Z,6.63
2017-12-26T12:07:06.180Z,6.69
2017-12-26T12:09:32.316Z,6.63
2017-12-26T12:11:58.117Z,6.65
2017-12-26T12:14:23.911Z,6.67
2017-12-26T12:16:49.848Z,6.71
2017-12-26T12:19:15.648Z,6.69
2017-12-26T12:21:41.445Z,6.72
2017-12-26T12:24:07.248Z,6.71
2017-12-26T12:26:33.071Z,6.68
2017-12-26T12:28:58.850Z,6.61
2017-12-26T12:31:24.644Z,6.39
2017-12-26T12:33:50.429Z,6.07
2017-12-26T12:36:16.257Z,5.90
2017-12-26T12:38:42.084Z,5.72
2017-12-26T12:41:07.886Z,5.57
2017-12-26T12:43:33.684Z,5.61
2017-12-26T12:45:59.478Z,5.58
2017-12-26T12:48:25.436Z,5.59
2017-12-26T12:50:51.242Z,5.64
2017-12-26T12:53:17.041Z,5.65
2017-12-26T12:55:42.851Z,5.69
2017-12-26T12:58:08.635Z,5.70
2017-12-26T13:00:34.772Z,5.76
2017-12-26T13:03:00.579Z,5.85
2017-12-26T13:05:26.395Z,5.87
2017-12-26T13:07:52.179Z,5.90
2017-12-26T13:10:18.004Z,5.84
2017-12-26T13:12:43.793Z,5.90
2017-12-26T13:15:09.589Z,6.21
2017-12-26T13:17:35.759Z,6.10
2017-12-26T13:20:01.555Z,6.17
2017-12-26T13:22:27.594Z,6.12
2017-12-26T13:24:53.580Z,6.14
2017-12-26T13:27:19.375Z,6.07
2017-12-26T13:29:45.243Z,6.10
2017-12-26T13:32:11.047Z,6.11
2017-12-26T13:34:36.836Z,6.05
2017-12-26T13:37:02.824Z,6.03
2017-12-26T13:39:28.631Z,6.02
2017-12-26T13:41:54.571Z,5.96
2017-12-26T13:44:20.388Z,5.95
2017-12-26T13:46:46.175Z,5.95
2017-12-26T13:49:11.950Z,6.01
2017-12-26T13:51:37.747Z,6.10
2017-12-26T13:54:03.548Z,6.07
2017-12-26T13:56:29.358Z,6.08
2017-12-26T13:58:55.162Z,6.08
2017-12-26T14:01:20.959Z,6.06
2017-12-26T14:03:46.750Z,6.06
2017-12-26T14:06:12.535Z,6.11
2017-12-26T14:08:38.326Z,6.13
2017-12-26T14:11:04.119Z,6.18
2017-12-26T14:13:29.906Z,6.07
2017-12-26T14:15:55.697Z,5.99
2017-12-26T14:18:21.687Z,5.97
2017-12-26T14:20:47.475Z,5.96
2017-12-26T14:23:13.282Z,6.07
2017-12-26T14:25:39.300Z,6.02
2017-12-26T14:28:05.103Z,6.08
2017-12-26T14:30:30.899Z,6.07
2017-12-26T14:32:56.738Z,6.12
2017-12-26T14:35:22.534Z,6.08
2017-12-26T14:37:48.315Z,6.17
2017-12-26T14:40:14.111Z,6.19
2017-12-26T14:42:39.942Z,6.23
2017-12-26T14:45:05.754Z,6.25
2017-12-26T14:47:31.555Z,6.24
2017-12-26T14:49:57.359Z,6.21
2017-12-26T14:52:30.235Z,6.21
2017-12-26T14:54:56.042Z,6.29
2017-12-26T14:57:21.843Z,6.26
2017-12-26T14:59:47.622Z,6.25
2017-12-26T15:02:13.414Z,6.28
2017-12-26T15:04:39.210Z,6.28
2017-12-26T15:07:05.006Z,6.29
2017-12-26T15:09:30.818Z,6.33
2017-12-26T15:11:56.594Z,6.38
2017-12-26T15:14:22.379Z,6.37
2017-12-26T15:16:48.179Z,6.36
2017-12-26T15:19:14.269Z,6.35
2017-12-26T15:21:40.107Z,6.26
2017-12-26T15:24:05.898Z,6.23
2017-12-26T15:26:31.687Z,6.21
2017-12-26T15:28:57.492Z,6.19
2017-12-26T15:31:23.294Z,6.12
2017-12-26T15:33:49.086Z,6.14
2017-12-26T15:36:14.902Z,6.08
2017-12-26T15:38:40.683Z,6.03
2017-12-26T15:41:06.470Z,6.01
2017-12-26T15:43:32.258Z,6.01
2017-12-26T15:45:58.053Z,5.98
2017-12-26T15:48:23.826Z,6.01
2017-12-26T15:50:49.615Z,5.95
2017-12-26T15:53:15.402Z,5.88
2017-12-26T15:55:41.387Z,5.83
2017-12-26T15:58:07.175Z,5.82
2017-12-26T16:00:32.963Z,5.77
2017-12-26T16:02:58.755Z,5.79
2017-12-26T16:05:24.527Z,5.79
2017-12-26T16:07:50.346Z,5.80
2017-12-26T16:10:16.131Z,5.77
2017-12-26T16:12:41.914Z,5.79
2017-12-26T16:15:07.733Z,5.80
2017-12-26T16:17:33.510Z,5.77
2017-12-26T16:19:59.306Z,5.76
2017-12-26T16:22:25.110Z,5.73
2017-12-26T16:24:50.886Z,5.63
2017-12-26T16:27:16.662Z,5.65
2017-12-26T16:29:42.475Z,5.62
2017-12-26T16:32:08.264Z,5.62
2017-12-26T16:34:34.036Z,5.64
2017-12-26T16:36:59.840Z,5.68
2017-12-26T16:39:25.713Z,5.72
2017-12-26T16:41:51.502Z,5.74
2017-12-26T16:44:17.310Z,5.78
2017-12-26T16:46:43.091Z,5.78
2017-12-26T16:49:08.872Z,5.72
2017-12-26T16:51:34.687Z,5.77
2017-12-26T16:54:00.478Z,5.76
2017-12-26T16:56:26.259Z,5.78
2017-12-26T16:58:52.455Z,5.74
2017-12-26T17:01:18.242Z,5.80
2017-12-26T17:03:44.026Z,5.80
2017-12-26T17:06:09.811Z,5.85
2017-12-26T17:08:35.590Z,5.83
2017-12-26T17:11:01.768Z,5.86
2017-12-26T17:13:27.568Z,5.86
2017-12-26T17:15:53.356Z,5.88
2017-12-26T17:18:19.271Z,5.88
2017-12-26T17:20:45.067Z,5.84
2017-12-26T17:23:10.840Z,5.88
2017-12-26T17:25:36.868Z,5.96
2017-12-26T17:28:02.666Z,5.96
2017-12-26T17:30:28.443Z,5.91
2017-12-26T17:32:54.422Z,5.87
2017-12-26T17:35:20.206Z,5.85
2017-12-26T17:37:45.979Z,5.90
2017-12-26T17:40:11.775Z,5.87
2017-12-26T17:42:37.559Z,5.85
2017-12-26T17:45:03.364Z,6.02
2017-12-26T17:47:36.163Z,5.97
2017-12-26T17:50:01.991Z,5.91
2017-12-26T17:52:27.785Z,5.95
2017-12-26T17:54:53.558Z,5.87
2017-12-26T17:57:19.335Z,5.86
2017-12-26T17:59:45.446Z,5.82
2017-12-26T18:02:11.228Z,5.82
2017-12-26T18:04:37.015Z,5.84
2017-12-26T18:07:02.806Z,5.82
2017-12-26T18:09:28.590Z,5.79
2017-12-26T18:12:01.457Z,5.82
2017-12-26T18:14:27.269Z,5.78
2017-12-26T18:16:53.046Z,5.78
2017-12-26T18:19:18.826Z,5.83
2017-12-26T18:21:44.951Z,5.81
2017-12-26T18:24:10.755Z,5.76
2017-12-26T18:26:36.554Z,5.85
2017-12-26T18:29:02.383Z,5.81
2017-12-26T18:31:28.186Z,5.76
2017-12-26T18:33:53.958Z,5.80
2017-12-26T18:36:19.739Z,5.72
2017-12-26T18:38:45.522Z,5.77
2017-12-26T18:41:11.320Z,5.78
2017-12-26T18:43:37.094Z,5.77
2017-12-26T18:46:02.889Z,5.80
2017-12-26T18:48:28.706Z,5.84
2017-12-26T18:50:54.478Z,5.87
2017-12-26T18:53:20.259Z,5.91
2017-12-26T18:55:46.383Z,5.87
2017-12-26T18:58:12.167Z,5.88
2017-12-26T19:00:37.950Z,5.97
2017-12-26T19:03:03.750Z,5.89
2017-12-26T19:05:29.532Z,5.80
2017-12-26T19:07:55.333Z,5.81
2017-12-26T19:10:21.113Z,5.77
2017-12-26T19:12:46.895Z,5.82
2017-12-26T19:15:12.681Z,5.75
2017-12-26T19:17:38.465Z,5.71
2017-12-26T19:20:04.250Z,5.73
2017-12-26T19:22:30.038Z,5.69
2017-12-26T19:24:55.816Z,5.70
2017-12-26T19:27:21.637Z,5.68
2017-12-26T19:29:47.410Z,5.69
2017-12-26T19:32:13.182Z,5.61
2017-12-26T19:34:38.969Z,5.70
2017-12-26T19:37:04.751Z,5.62
2017-12-26T19:39:30.542Z,5.56
2017-12-26T19:41:56.353Z,5.57
2017-12-26T19:44:22.130Z,5.52
2017-12-26T19:46:47.919Z,5.45
2017-12-26T19:49:13.730Z,5.47
2017-12-26T19:51:39.521Z,5.47
2017-12-26T19:54:05.306Z,5.41
2017-12-26T19:56:31.107Z,5.44
2017-12-26T19:58:56.894Z,5.38
2017-12-26T20:01:22.691Z,5.45
2017-12-26T20:03:48.501Z,5.40
2017-12-26T20:06:14.283Z,5.35
2017-12-26T20:08:40.071Z,5.33
2017-12-26T20:11:05.866Z,5.35
2017-12-26T20:13:31.644Z,5.35
2017-12-26T20:15:57.427Z,5.34
2017-12-26T20:18:23.206Z,5.32
2017-12-26T20:20:49.010Z,5.34
2017-12-26T20:23:15.113Z,5.30
2017-12-26T20:25:40.907Z,5.37
2017-12-26T20:28:13.727Z,5.27
2017-12-26T20:30:39.502Z,5.22
2017-12-26T20:33:05.297Z,5.25
2017-12-26T20:35:31.102Z,5.20
2017-12-26T20:37:56.897Z,5.19
2017-12-26T20:40:22.698Z,5.16
2017-12-26T20:42:48.514Z,5.13
2017-12-26T20:45:14.290Z,5.11
2017-12-26T20:47:40.091Z,5.10
2017-12-26T20:50:05.891Z,5.06
2017-12-26T20:52:31.678Z,5.10
2017-12-26T20:54:57.450Z,5.07
2017-12-26T20:57:23.439Z,5.06
2017-12-26T20:59:49.221Z,5.09
2017-12-26T21:02:15.012Z,5.07
2017-12-26T21:04:40.804Z,5.09
2017-12-26T21:07:06.574Z,5.11
2017-12-26T21:09:32.366Z,5.03
2017-12-26T21:11:58.442Z,5.04
2017-12-26T21:14:24.234Z,5.03
2017-12-26T21:16:50.014Z,5.03
2017-12-26T21:19:15.809Z,5.06
2017-12-26T21:21:41.593Z,5.04
2017-12-26T21:24:07.407Z,5.00
2017-12-26T21:26:33.197Z,5.08
2017-12-26T21:28:58.994Z,5.03
2017-12-26T21:31:24.781Z,5.02
2017-12-26T21:33:50.582Z,4.95
2017-12-26T21:36:16.394Z,4.91
2017-12-26T21:38:42.164Z,4.84
2017-12-26T21:41:07.962Z,4.86
2017-12-26T21:43:33.742Z,4.83
2017-12-26T21:45:59.525Z,4.80
2017-12-26T21:48:25.325Z,4.74
2017-12-26T21:50:51.106Z,4.77
2017-12-26T21:53:16.884Z,4.69
2017-12-26T21:55:42.766Z,4.70
2017-12-26T21:58:08.551Z,4.67
2017-12-26T22:00:34.362Z,4.65
2017-12-26T22:03:00.170Z,4.64
2017-12-26T22:05:25.954Z,4.63
2017-12-26T22:07:51.731Z,4.61
2017-12-26T22:10:17.551Z,4.60
2017-12-26T22:12:43.339Z,4.62
2017-12-26T22:15:09.130Z,4.65
2017-12-26T22:17:34.934Z,4.54
2017-12-26T22:20:00.742Z,4.60
2017-12-26T22:22:26.506Z,4.58
2017-12-26T22:24:52.299Z,4.56
2017-12-26T22:27:18.206Z,4.54
2017-12-26T22:29:44.015Z,4.57
2017-12-26T22:32:09.802Z,4.61
2017-12-26T22:34:35.634Z,4.63
2017-12-26T22:37:02.611Z,4.65
2017-12-26T22:39:28.446Z,4.58
2017-12-26T22:41:54.254Z,4.56
2017-12-26T22:44:20.098Z,4.57
2017-12-26T22:46:45.873Z,4.57
2017-12-26T22:49:11.857Z,4.58
2017-12-26T22:51:37.668Z,4.57
2017-12-26T22:54:03.582Z,4.57
2017-12-26T22:56:29.438Z,4.58
2017-12-26T22:58:55.285Z,4.59
2017-12-26T23:01:21.110Z,4.60
2017-12-26T23:03:46.884Z,4.54
2017-12-26T23:06:12.682Z,4.59
2017-12-26T23:08:38.610Z,4.62
2017-12-26T23:11:04.574Z,4.58
2017-12-26T23:13:30.356Z,4.61
2017-12-26T23:16:02.290Z,4.56
2017-12-26T23:18:28.418Z,4.61
2017-12-26T23:21:01.034Z,4.55
2017-12-26T23:23:33.301Z,4.57
2017-12-26T23:26:05.282Z,4.55
2017-12-26T23:28:37.035Z,4.65
2017-12-26T23:31:09.045Z,4.59
2017-12-26T23:33:40.873Z,4.56
2017-12-26T23:39:09.573Z,4.70
2017-12-26T23:41:41.382Z,4.70
2017-12-26T23:44:13.238Z,4.65
2017-12-26T23:52:32.268Z,4.69
2017-12-26T23:55:04.385Z,4.57
2017-12-26T23:57:36.350Z,4.64
